Time;durP1;ratioP1;P1;durP2;ratioP2;P2;SDS_P1;SDS_P2;PMS_P1;PMS_P2;Temp;Humidity;BMP_temperature;BMP_pressure;BME280_temperature;BME280_humidity;BME280_pressure;Samples;Min_cycle;Max_cycle;Signal;HPM_P1;HPM_P2
2023/10/26 00:01:31;;;;;;;3.53;0.70;;;;;;;12.20;93.38;149177.44;5045828;28;20225;-60
2023/10/26 00:03:59;;;;;;;1.77;0.70;;;;;;;12.23;93.15;149184.94;5040634;28;20217;-60
2023/10/26 00:06:25;;;;;;;1.07;0.53;;;;;;;12.21;93.24;149179.94;5034002;28;20309;-60
2023/10/26 00:08:53;;;;;;;2.63;0.60;;;;;;;12.17;95.42;149169.97;5032943;28;20233;-60
2023/10/26 00:11:20;;;;;;;2.87;0.70;;;;;;;12.15;94.70;149164.97;5044541;28;20229;-60
2023/10/26 00:13:46;;;;;;;1.17;0.50;;;;;;;12.13;95.40;149158.78;5040652;28;20229;-60
2023/10/26 00:16:13;;;;;;;5.07;0.77;;;;;;;12.16;94.34;149167.47;5045400;28;20288;-60
2023/10/26 00:18:40;;;;;;;2.63;0.60;;;;;;;12.21;93.29;149179.94;5044425;28;20313;-60
2023/10/26 00:21:06;;;;;;;3.40;0.70;;;;;;;12.18;94.17;149171.25;5041291;28;20249;-59
2023/10/26 00:23:33;;;;;;;1.27;0.70;;;;;;;12.18;94.71;149172.47;5043392;28;20241;-60
2023/10/26 00:26:01;;;;;;;1.50;0.70;;;;;;;12.07;95.59;149145.03;5041724;28;20233;-60
2023/10/26 00:28:27;;;;;;;3.23;0.57;;;;;;;12.04;95.59;149138.81;5044670;28;20320;-60
2023/10/26 00:30:55;;;;;;;2.43;0.87;;;;;;;12.03;95.74;149136.34;5042976;28;20229;-60
2023/10/26 00:33:22;;;;;;;3.23;0.77;;;;;;;12.06;94.43;149142.53;5025672;28;20240;-60
2023/10/26 00:35:50;;;;;;;1.33;0.50;;;;;;;12.00;94.75;149128.84;5033964;28;20548;-60
2023/10/26 00:38:17;;;;;;;4.23;0.50;;;;;;;11.92;94.96;149110.09;5045679;28;20319;-59
2023/10/26 00:40:44;;;;;;;2.17;0.50;;;;;;;11.85;95.86;149091.41;5027631;28;20242;-60
2023/10/26 00:43:21;;;;;;;4.07;0.60;;;;;;;11.88;96.39;149100.09;5024788;28;20241;-60
2023/10/26 00:45:52;;;;;;;3.07;0.60;;;;;;;11.90;95.53;149105.09;5032183;28;20315;-62
2023/10/26 00:48:18;;;;;;;1.30;0.40;;;;;;;11.85;95.01;149092.63;5036200;28;20232;-60
2023/10/26 00:50:47;;;;;;;1.07;0.60;;;;;;;11.84;96.20;149088.91;5040925;28;20237;-60
2023/10/26 00:53:14;;;;;;;3.77;0.80;;;;;;;11.86;95.79;149095.13;5025192;28;20224;-61
2023/10/26 00:55:41;;;;;;;2.30;0.60;;;;;;;11.87;95.27;149097.59;5038380;28;20683;-60
2023/10/26 00:58:10;;;;;;;1.50;0.70;;;;;;;11.89;94.81;149102.59;5021281;28;20224;-61
2023/10/26 01:00:39;;;;;;;2.23;0.50;;;;;;;11.96;93.62;149118.81;5042646;28;20368;-61
2023/10/26 01:03:06;;;;;;;3.33;0.60;;;;;;;11.88;93.64;149100.09;5041500;28;20570;-61
2023/10/26 01:05:36;;;;;;;1.97;0.60;;;;;;;11.76;94.51;149071.47;5044308;28;20270;-61
2023/10/26 01:08:03;;;;;;;1.37;0.40;;;;;;;11.71;94.31;149057.72;5041308;28;20241;-59
2023/10/26 01:10:30;;;;;;;1.10;0.50;;;;;;;11.66;93.47;149046.53;5029380;28;20245;-60
2023/10/26 01:12:57;;;;;;;3.90;0.63;;;;;;;11.61;94.12;149034.06;5040884;28;20219;-60
2023/10/26 01:15:25;;;;;;;1.67;0.47;;;;;;;11.58;93.61;149027.84;5043848;28;20228;-60
2023/10/26 01:17:52;;;;;;;3.00;0.53;;;;;;;11.59;92.85;149029.06;5040850;28;20362;-60
2023/10/26 01:20:20;;;;;;;2.97;0.97;;;;;;;11.49;93.84;149005.41;5045411;28;20241;-60
2023/10/26 01:22:48;;;;;;;1.73;0.40;;;;;;;11.45;93.43;148996.66;5055963;28;20236;-60
2023/10/26 01:25:14;;;;;;;4.03;0.63;;;;;;;11.59;92.28;149029.06;5060141;28;20236;-59
2023/10/26 01:27:40;;;;;;;2.50;0.60;;;;;;;11.57;92.56;149025.34;5043170;28;20781;-59
2023/10/26 01:30:08;;;;;;;1.07;0.40;;;;;;;11.51;91.67;149011.63;5057908;28;20324;-60
2023/10/26 01:32:34;;;;;;;1.43;0.50;;;;;;;11.42;92.75;148989.19;5044844;28;20599;-60
2023/10/26 01:35:01;;;;;;;1.23;0.40;;;;;;;11.45;92.24;148995.44;5039399;28;20215;-59
2023/10/26 01:37:27;;;;;;;1.43;0.40;;;;;;;11.45;92.39;148996.66;5044628;28;20228;-59
2023/10/26 01:39:55;;;;;;;1.53;0.40;;;;;;;11.42;92.25;148989.19;5040320;28;20220;-60
2023/10/26 01:42:22;;;;;;;0.70;0.40;;;;;;;11.34;92.33;148970.53;5059038;28;20230;-60
2023/10/26 01:44:48;;;;;;;1.83;0.50;;;;;;;11.34;91.70;148969.25;5056213;28;20215;-60
2023/10/26 01:47:17;;;;;;;0.70;0.23;;;;;;;11.25;92.01;148948.09;5043546;28;20620;-60
2023/10/26 01:49:44;;;;;;;1.30;0.50;;;;;;;11.25;91.46;148946.81;5041863;28;20292;-60
2023/10/26 01:52:10;;;;;;;0.80;0.30;;;;;;;11.32;91.62;148964.28;5041435;28;20332;-59
2023/10/26 01:54:37;;;;;;;1.43;0.40;;;;;;;11.28;91.55;148954.31;5041911;28;20245;-60
2023/10/26 01:57:05;;;;;;;1.30;0.63;;;;;;;11.26;91.72;148950.59;5038623;28;20240;-60
2023/10/26 01:59:32;;;;;;;2.20;0.37;;;;;;;11.31;90.98;148963.06;5042007;28;20235;-60
2023/10/26 02:01:59;;;;;;;0.80;0.40;;;;;;;11.19;91.65;148933.13;5039214;28;20248;-60
2023/10/26 02:04:25;;;;;;;0.97;0.40;;;;;;;11.19;91.15;148934.38;5042123;28;20223;-60
2023/10/26 02:06:52;;;;;;;3.93;0.50;;;;;;;11.07;91.83;148904.50;5041540;28;20226;-60
2023/10/26 02:09:19;;;;;;;2.63;0.43;;;;;;;11.17;91.32;148928.16;5043160;28;20236;-60
2023/10/26 02:11:45;;;;;;;1.27;0.30;;;;;;;11.09;91.93;148909.50;5055899;28;20240;-60
2023/10/26 02:14:14;;;;;;;2.63;0.80;;;;;;;11.06;92.96;148902.00;5058423;28;20592;-58
2023/10/26 02:16:41;;;;;;;1.70;0.60;;;;;;;11.04;91.99;148897.03;5041609;28;20232;-60
2023/10/26 02:19:08;;;;;;;1.97;0.33;;;;;;;11.14;90.63;148921.91;5039563;28;20234;-60
2023/10/26 02:21:35;;;;;;;0.93;0.30;;;;;;;11.06;90.94;148903.22;5040754;28;20237;-59
2023/10/26 02:24:02;;;;;;;1.43;0.50;;;;;;;11.17;90.03;148929.38;5038412;28;20214;-60
2023/10/26 02:26:28;;;;;;;1.20;0.50;;;;;;;11.11;90.18;148914.47;5042890;28;20843;-60
2023/10/26 02:28:55;;;;;;;1.27;0.57;;;;;;;11.03;90.67;148894.53;5039705;28;20228;-60
2023/10/26 02:31:23;;;;;;;1.67;0.40;;;;;;;11.08;89.77;148908.22;5041806;28;20249;-60
2023/10/26 02:33:49;;;;;;;1.80;0.40;;;;;;;11.10;89.72;148911.97;5054820;28;20741;-60
2023/10/26 02:36:16;;;;;;;2.87;0.30;;;;;;;11.22;87.99;148940.63;5042601;28;20234;-60
2023/10/26 02:38:43;;;;;;;0.50;0.30;;;;;;;11.18;88.72;148931.88;5029820;28;20244;-60
2023/10/26 02:41:09;;;;;;;0.97;0.30;;;;;;;11.26;86.91;148949.31;5039413;28;20240;-59
2023/10/26 02:43:36;;;;;;;0.90;0.30;;;;;;;11.18;88.52;148931.88;5032627;28;20246;-60
2023/10/26 02:46:04;;;;;;;3.33;0.50;;;;;;;11.13;88.74;148918.19;5039874;28;20213;-60
2023/10/26 02:48:33;;;;;;;0.83;0.37;;;;;;;11.16;88.08;148926.88;5042275;28;20229;-60
2023/10/26 02:51:00;;;;;;;0.97;0.30;;;;;;;11.08;88.37;148907.00;5055912;28;20727;-59
2023/10/26 02:53:27;;;;;;;2.63;0.67;;;;;;;11.18;87.91;148930.66;5041572;28;20826;-60
2023/10/26 02:55:54;;;;;;;0.80;0.30;;;;;;;11.15;87.32;148923.16;5040535;28;20224;-60
2023/10/26 02:58:20;;;;;;;0.97;0.50;;;;;;;11.15;87.58;148924.41;5057246;28;20225;-60
2023/10/26 03:00:47;;;;;;;1.90;0.40;;;;;;;11.09;88.03;148909.50;5030627;28;20228;-60
2023/10/26 03:03:14;;;;;;;0.60;0.23;;;;;;;11.02;88.03;148892.03;5041723;28;20227;-60
2023/10/26 03:05:42;;;;;;;2.27;0.40;;;;;;;10.92;89.44;148868.34;5041045;28;20233;-60
2023/10/26 03:08:11;;;;;;;0.90;0.50;;;;;;;10.78;89.91;148835.97;5038247;28;20227;-61
2023/10/26 03:10:38;;;;;;;0.60;0.30;;;;;;;10.79;89.59;148837.22;5042868;28;20233;-60
2023/10/26 03:13:05;;;;;;;1.80;0.40;;;;;;;10.69;90.84;148812.31;5040224;28;20319;-60
2023/10/26 03:15:36;;;;;;;1.30;0.40;;;;;;;10.76;90.86;148830.97;5048456;28;20241;-60
2023/10/26 03:18:04;;;;;;;2.00;0.50;;;;;;;10.71;91.67;148817.31;5042230;28;20300;-61
2023/10/26 03:20:32;;;;;;;1.37;0.60;;;;;;;10.59;92.47;148788.69;5045788;28;20755;-61
2023/10/26 03:23:00;;;;;;;1.90;0.30;;;;;;;10.82;90.56;148843.44;5041857;28;20222;-61
2023/10/26 03:25:28;;;;;;;2.23;0.50;;;;;;;10.77;90.47;148833.47;5044674;28;20239;-61
2023/10/26 03:27:57;;;;;;;2.27;0.40;;;;;;;10.74;91.68;148826.00;5042284;28;20232;-60
2023/10/26 03:33:05;;;;;;;1.10;0.20;;;;;;;10.85;91.52;148850.91;5097480;22;20275;-58
2023/10/26 03:35:37;;;;;;;3.60;0.90;;;;;;;10.75;92.41;148828.50;5031067;28;20299;-57
2023/10/26 03:38:05;;;;;;;1.40;0.47;;;;;;;10.77;92.78;148833.47;5033546;28;20303;-58
2023/10/26 03:40:35;;;;;;;1.77;0.50;;;;;;;10.73;93.23;148823.50;5028227;28;20236;-57
2023/10/26 03:43:02;;;;;;;2.00;0.40;;;;;;;10.74;93.90;148826.00;5002216;28;20699;-58
2023/10/26 03:45:31;;;;;;;3.07;0.30;;;;;;;10.68;93.83;148811.03;4993792;28;20241;-58
2023/10/26 03:47:58;;;;;;;2.77;0.50;;;;;;;10.65;93.90;148803.56;5001076;28;20309;-57
2023/10/26 03:50:24;;;;;;;2.40;0.60;;;;;;;10.69;94.44;148813.53;5005348;28;20235;-57
2023/10/26 03:52:51;;;;;;;1.70;0.40;;;;;;;10.81;92.83;148840.94;5001149;28;20230;-57
2023/10/26 03:55:20;;;;;;;0.97;0.40;;;;;;;10.93;94.10;148870.84;5016248;28;20233;-58
2023/10/26 03:57:48;;;;;;;3.80;0.70;;;;;;;10.92;94.61;148869.63;5001978;28;20243;-58
2023/10/26 04:00:16;;;;;;;1.80;0.40;;;;;;;11.15;95.24;148923.16;4994775;28;20269;-58
2023/10/26 04:02:43;;;;;;;2.33;0.40;;;;;;;11.23;94.55;148943.09;4995531;28;20869;-58
2023/10/26 04:05:10;;;;;;;1.93;0.60;;;;;;;11.18;96.57;148931.88;4993731;28;20249;-58
2023/10/26 04:07:38;;;;;;;2.43;0.50;;;;;;;11.19;95.85;148933.13;5004305;28;20728;-55
2023/10/26 04:10:07;;;;;;;1.90;0.50;;;;;;;11.24;96.12;148945.59;5001382;28;20709;-56
2023/10/26 04:12:35;;;;;;;1.13;0.60;;;;;;;11.26;96.55;148950.59;5001608;28;20263;-55
2023/10/26 04:15:01;;;;;;;3.73;0.60;;;;;;;11.25;97.80;148948.09;4999883;28;20229;-58
2023/10/26 04:17:28;;;;;;;3.97;0.60;;;;;;;11.24;97.80;148945.59;5004770;28;20240;-58
2023/10/26 04:19:55;;;;;;;2.80;0.43;;;;;;;11.25;96.77;148946.81;4999196;28;20226;-57
2023/10/26 04:22:21;;;;;;;1.40;0.60;;;;;;;11.19;97.19;148934.38;5003824;28;20226;-58
2023/10/26 04:24:48;;;;;;;1.97;0.50;;;;;;;11.16;98.20;148925.66;4992335;28;20232;-57
2023/10/26 04:27:15;;;;;;;2.00;0.50;;;;;;;11.30;95.76;148960.56;5004387;28;20233;-58
2023/10/26 04:29:44;;;;;;;3.03;0.50;;;;;;;11.32;95.67;148965.53;5006574;28;20289;-57
2023/10/26 04:32:10;;;;;;;2.60;0.60;;;;;;;11.50;94.90;149009.13;5004209;28;20237;-55
2023/10/26 04:34:38;;;;;;;1.53;0.40;;;;;;;11.51;94.56;149011.63;5001968;28;20258;-58
2023/10/26 04:37:05;;;;;;;1.90;0.70;;;;;;;11.56;94.52;149022.88;4982719;28;20752;-58
2023/10/26 04:39:31;;;;;;;3.50;0.80;;;;;;;11.57;95.95;149025.34;5003576;28;20254;-60
2023/10/26 04:41:58;;;;;;;2.30;0.50;;;;;;;11.53;95.97;149015.38;5001466;28;20587;-59
2023/10/26 04:44:25;;;;;;;1.83;0.60;;;;;;;11.56;96.51;149021.59;5002430;28;20239;-58
2023/10/26 04:46:56;;;;;;;5.30;0.83;;;;;;;11.62;99.12;149037.81;4999799;28;20253;-58
2023/10/26 04:49:23;;;;;;;9.57;4.60;;;;;;;11.63;98.35;149040.31;5001982;28;20244;-59
2023/10/26 04:51:50;;;;;;;4.97;1.07;;;;;;;11.71;100.00;149057.72;5015908;28;20232;-59
2023/10/26 04:54:16;;;;;;;2.10;0.70;;;;;;;11.73;100.00;149062.72;5002689;28;20236;-58
2023/10/26 04:56:44;;;;;;;3.93;0.77;;;;;;;11.72;100.00;149060.22;4999690;28;20228;-58
2023/10/26 04:59:11;;;;;;;1.27;0.60;;;;;;;11.65;100.00;149045.31;5000145;28;20579;-58
2023/10/26 05:01:38;;;;;;;5.27;0.90;;;;;;;11.58;100.00;149027.84;5004144;28;20242;-57
2023/10/26 05:04:06;;;;;;;2.07;1.10;;;;;;;11.59;100.00;149030.34;4988182;28;20214;-58
2023/10/26 05:06:34;;;;;;;2.10;0.90;;;;;;;11.62;100.00;149036.56;5002497;28;20705;-58
2023/10/26 05:09:01;;;;;;;1.70;0.80;;;;;;;11.55;100.00;149019.09;4997914;28;20229;-55
2023/10/26 05:11:27;;;;;;;2.37;0.87;;;;;;;11.50;100.00;149007.91;5003575;28;20674;-56
2023/10/26 05:13:54;;;;;;;4.97;1.07;;;;;;;11.45;100.00;148996.66;5000359;28;20211;-57
2023/10/26 05:16:21;;;;;;;2.67;1.60;;;;;;;11.42;100.00;148989.19;5003345;28;20231;-57
2023/10/26 05:18:48;;;;;;;4.30;2.50;;;;;;;11.36;100.00;148975.50;4998297;28;20215;-56
2023/10/26 05:21:16;;;;;;;4.43;1.67;;;;;;;11.39;100.00;148981.72;5002035;28;20250;-58
2023/10/26 05:23:43;;;;;;;2.87;0.97;;;;;;;11.35;100.00;148971.75;5002353;28;20467;-58
2023/10/26 05:26:10;;;;;;;35.20;31.33;;;;;;;11.36;100.00;148975.50;4975312;28;20260;-57
2023/10/26 05:28:37;;;;;;;41.37;37.47;;;;;;;11.38;100.00;148979.22;4999524;28;20241;-59
2023/10/26 05:31:04;;;;;;;23.33;21.43;;;;;;;11.37;100.00;148976.72;4997985;28;20231;-58
2023/10/26 05:33:31;;;;;;;4.10;1.47;;;;;;;11.35;100.00;148973.03;5000024;28;20230;-58
2023/10/26 05:35:58;;;;;;;2.70;1.13;;;;;;;11.33;100.00;148968.03;4999056;28;20230;-57
2023/10/26 05:38:26;;;;;;;4.00;1.67;;;;;;;11.34;100.00;148970.53;5000962;28;20233;-57
2023/10/26 05:40:55;;;;;;;3.83;1.00;;;;;;;11.35;100.00;148973.03;4999024;28;20309;-58
2023/10/26 05:43:22;;;;;;;1.13;0.70;;;;;;;11.35;100.00;148971.75;4990062;28;20253;-58
2023/10/26 05:45:49;;;;;;;2.87;0.80;;;;;;;11.34;100.00;148969.25;4998402;28;20232;-58
2023/10/26 05:48:16;;;;;;;0.87;0.70;;;;;;;11.33;100.00;148966.75;5000017;28;20591;-57
2023/10/26 05:50:44;;;;;;;1.77;0.90;;;;;;;11.27;100.00;148951.81;5001053;28;20229;-58
2023/10/26 05:53:13;;;;;;;3.37;1.37;;;;;;;11.23;100.00;148943.09;4984430;28;20237;-58
2023/10/26 05:55:41;;;;;;;4.43;1.60;;;;;;;11.21;100.00;148938.13;5003601;28;20307;-58
2023/10/26 05:58:09;;;;;;;1.70;1.10;;;;;;;11.19;100.00;148934.38;4996133;28;20246;-59
2023/10/26 06:00:37;;;;;;;3.30;1.47;;;;;;;11.22;100.00;148940.63;4990342;28;20651;-59
2023/10/26 06:03:04;;;;;;;2.50;1.10;;;;;;;11.21;100.00;148939.34;4995814;28;20231;-59
2023/10/26 06:05:38;;;;;;;3.33;1.37;;;;;;;11.22;100.00;148940.63;5001292;28;20230;-58
2023/10/26 06:08:05;;;;;;;6.93;1.10;;;;;;;11.21;100.00;148938.13;5001063;28;21798;-59
2023/10/26 06:10:37;;;;;;;3.50;1.08;;;;;;;11.25;100.00;148948.09;5001195;28;20454;-58
2023/10/26 06:13:07;;;;;;;6.23;1.10;;;;;;;11.19;100.00;148934.38;4999789;28;20688;-58
2023/10/26 06:15:37;;;;;;;1.70;1.00;;;;;;;11.17;100.00;148929.38;5003129;28;20241;-58
2023/10/26 06:18:03;;;;;;;2.30;1.00;;;;;;;11.17;100.00;148928.16;4998766;28;20235;-58
2023/10/26 06:20:30;;;;;;;1.57;1.13;;;;;;;11.16;100.00;148925.66;4996886;28;20732;-58
2023/10/26 06:22:57;;;;;;;4.07;1.23;;;;;;;11.17;100.00;148928.16;4996253;28;20222;-57
2023/10/26 06:25:25;;;;;;;3.07;0.97;;;;;;;11.16;100.00;148925.66;4996110;28;20297;-58
2023/10/26 06:27:51;;;;;;;1.57;0.50;;;;;;;11.19;100.00;148933.13;5000928;28;20657;-57
2023/10/26 06:30:20;;;;;;;2.13;0.80;;;;;;;11.22;100.00;148941.84;5003654;28;20238;-58
2023/10/26 06:32:46;;;;;;;0.83;0.47;;;;;;;11.26;100.00;148950.59;4998282;28;20242;-58
2023/10/26 06:35:13;;;;;;;0.93;0.50;;;;;;;11.31;100.00;148963.06;5003436;28;20230;-57
2023/10/26 06:37:39;;;;;;;1.00;0.70;;;;;;;11.32;100.00;148965.53;5001116;28;20280;-58
2023/10/26 06:40:07;;;;;;;1.00;0.50;;;;;;;11.30;100.00;148960.56;4998815;28;20241;-58
2023/10/26 06:42:34;;;;;;;1.70;0.60;;;;;;;11.31;100.00;148961.78;4981320;28;21034;-58
2023/10/26 06:45:00;;;;;;;0.80;0.40;;;;;;;11.32;100.00;148965.53;5000687;28;20324;-57
2023/10/26 06:47:28;;;;;;;1.50;0.40;;;;;;;11.39;100.00;148980.50;5001676;28;20571;-58
2023/10/26 06:49:55;;;;;;;1.87;0.40;;;;;;;11.36;100.00;148975.50;4997384;28;20226;-57
2023/10/26 06:52:22;;;;;;;1.10;0.40;;;;;;;11.40;100.00;148982.97;5004725;28;20705;-59
2023/10/26 06:54:49;;;;;;;1.53;0.60;;;;;;;11.36;100.00;148974.25;5003258;28;21831;-57
2023/10/26 06:57:16;;;;;;;1.10;0.87;;;;;;;11.40;100.00;148982.97;5001888;28;20254;-58
2023/10/26 06:59:42;;;;;;;3.03;0.63;;;;;;;11.46;100.00;148997.94;4999583;28;20305;-58
2023/10/26 07:02:10;;;;;;;28.17;16.37;;;;;;;11.50;100.00;149009.13;4994278;28;20234;-58
2023/10/26 07:04:38;;;;;;;35.60;16.93;;;;;;;11.54;100.00;149017.88;4998355;28;20234;-59
2023/10/26 07:07:04;;;;;;;35.93;16.63;;;;;;;11.60;100.00;149032.84;4999569;28;20257;-59
2023/10/26 07:09:31;;;;;;;32.80;15.37;;;;;;;11.68;100.00;149051.50;5000232;28;20319;-56
2023/10/26 07:11:58;;;;;;;9.93;4.50;;;;;;;11.78;100.00;149075.16;4999873;28;20234;-58
2023/10/26 07:14:25;;;;;;;10.37;5.00;;;;;;;11.84;100.00;149088.91;4995279;28;20232;-57
2023/10/26 07:16:51;;;;;;;7.70;3.60;;;;;;;11.95;100.00;149117.56;4997577;28;20237;-58
2023/10/26 07:19:18;;;;;;;1.57;0.77;;;;;;;12.06;100.00;149143.81;4999637;28;20298;-55
2023/10/26 07:21:46;;;;;;;0.67;0.40;;;;;;;12.12;100.00;149157.50;4998341;28;20757;-58
2023/10/26 07:24:12;;;;;;;1.00;0.40;;;;;;;12.21;100.00;149179.94;4990730;28;20750;-58
2023/10/26 07:26:39;;;;;;;3.50;0.47;;;;;;;12.29;100.00;149198.63;5000421;28;20758;-58
2023/10/26 07:29:06;;;;;;;0.93;0.30;;;;;;;12.40;100.00;149226.06;5000102;28;20252;-58
2023/10/26 07:31:33;;;;;;;2.40;0.60;;;;;;;12.43;100.00;149232.31;5000896;28;20233;-57
2023/10/26 07:33:59;;;;;;;0.60;0.30;;;;;;;12.54;100.00;149259.75;4995792;28;20225;-58
2023/10/26 07:36:30;;;;;;;2.00;0.60;;;;;;;12.54;100.00;149259.75;4998685;28;20258;-58
2023/10/26 07:38:59;;;;;;;1.73;0.40;;;;;;;12.66;100.00;149288.41;4996334;28;20228;-58
2023/10/26 07:41:26;;;;;;;1.60;0.50;;;;;;;12.68;100.00;149293.41;4997811;28;20290;-58
2023/10/26 07:43:53;;;;;;;3.13;0.60;;;;;;;12.76;100.00;149310.88;4993925;28;20220;-58
2023/10/26 07:46:21;;;;;;;1.27;0.40;;;;;;;12.75;99.56;149308.38;4995140;28;20242;-57
2023/10/26 07:48:47;;;;;;;1.70;0.40;;;;;;;12.90;99.21;149344.53;4997031;28;20220;-58
2023/10/26 07:51:14;;;;;;;3.43;0.50;;;;;;;12.97;98.39;149363.25;5000426;28;20719;-58
2023/10/26 07:53:40;;;;;;;1.30;0.40;;;;;;;12.95;98.04;149358.28;5002680;28;20292;-58
2023/10/26 07:56:09;;;;;;;2.20;0.50;;;;;;;13.10;98.20;149394.44;4998334;28;20311;-58
2023/10/26 07:58:35;;;;;;;1.23;0.40;;;;;;;13.10;97.77;149394.44;5001041;28;20235;-58
2023/10/26 08:01:08;;;;;;;0.75;0.40;;;;;;;13.03;98.47;149375.72;4997938;28;20240;-57
2023/10/26 08:03:35;;;;;;;2.47;0.40;;;;;;;12.84;98.97;149332.06;5002109;28;20846;-57
2023/10/26 08:06:06;;;;;;;3.63;0.40;;;;;;;12.97;98.81;149362.00;5000780;28;20233;-58
2023/10/26 08:08:33;;;;;;;3.43;0.60;;;;;;;12.91;96.89;149348.28;5001597;28;20234;-59
2023/10/26 08:11:09;;;;;;;1.57;0.50;;;;;;;12.72;100.00;149302.13;4998921;28;20243;-57
2023/10/26 08:13:36;;;;;;;1.83;0.40;;;;;;;12.70;100.00;149298.41;5005352;28;20289;-57
2023/10/26 08:16:02;;;;;;;1.77;0.50;;;;;;;12.73;100.00;149304.59;5002639;28;20245;-57
2023/10/26 08:18:29;;;;;;;0.97;0.50;;;;;;;12.66;100.00;149287.19;5005388;28;20240;-57
2023/10/26 08:20:56;;;;;;;3.80;0.43;;;;;;;12.65;100.00;149284.69;4998798;28;20224;-58
2023/10/26 08:23:23;;;;;;;2.40;0.60;;;;;;;12.69;100.00;149294.69;5002264;28;20339;-58
2023/10/26 08:25:50;;;;;;;3.23;0.40;;;;;;;12.72;100.00;149300.88;5001041;28;20236;-58
2023/10/26 08:28:18;;;;;;;4.97;0.67;;;;;;;12.75;100.00;149308.38;5003261;28;20224;-57
2023/10/26 08:30:44;;;;;;;3.83;1.40;;;;;;;12.79;100.00;149318.34;5003054;28;20240;-58
2023/10/26 08:33:11;;;;;;;2.87;1.30;;;;;;;12.79;100.00;149318.34;5000152;28;20247;-58
2023/10/26 08:35:39;;;;;;;3.83;1.10;;;;;;;12.81;100.00;149323.34;5004894;28;20236;-57
2023/10/26 08:38:05;;;;;;;1.97;1.17;;;;;;;12.69;100.00;149294.69;5000097;28;20260;-58
2023/10/26 08:40:37;;;;;;;4.83;1.53;;;;;;;12.66;100.00;149287.19;5001756;28;20234;-58
2023/10/26 08:43:05;;;;;;;2.93;1.47;;;;;;;12.60;100.00;149272.22;4998559;28;20223;-57
2023/10/26 08:45:37;;;;;;;3.47;1.60;;;;;;;12.51;100.00;149251.00;5003950;28;20237;-57
2023/10/26 08:48:05;;;;;;;3.40;2.00;;;;;;;12.42;100.00;149228.56;5001543;28;20228;-58
2023/10/26 08:50:38;;;;;;;5.30;1.50;;;;;;;12.25;100.00;149189.91;5005948;28;20229;-58
2023/10/26 08:53:04;;;;;;;2.47;1.70;;;;;;;12.11;100.00;149155.00;5001569;28;20713;-58
2023/10/26 08:55:39;;;;;;;2.87;1.80;;;;;;;12.02;100.00;149132.56;5005104;28;20236;-58
2023/10/26 08:58:06;;;;;;;2.87;1.87;;;;;;;11.91;100.00;149107.59;5000169;28;21289;-57
2023/10/26 09:00:40;;;;;;;2.53;1.87;;;;;;;11.80;100.00;149080.16;5001734;28;20232;-57
2023/10/26 09:03:07;;;;;;;4.27;1.90;;;;;;;11.75;100.00;149067.69;4995524;28;20236;-57
2023/10/26 09:05:52;;;;;;;7.13;2.23;;;;;;;11.74;100.00;149065.19;5002164;28;20233;-57
2023/10/26 09:08:19;;;;;;;3.37;1.60;;;;;;;11.77;100.00;149073.94;4999874;28;20230;-58
2023/10/26 09:10:46;;;;;;;5.07;2.37;;;;;;;11.75;100.00;149067.69;4999668;28;20240;-58
2023/10/26 09:13:14;;;;;;;5.23;3.10;;;;;;;11.73;100.00;149063.97;5001585;28;20778;-58
2023/10/26 09:15:50;;;;;;;5.20;2.20;;;;;;;11.65;100.00;149045.31;5004835;28;20565;-57
2023/10/26 09:18:17;;;;;;;2.87;1.57;;;;;;;11.71;100.00;149057.72;5001843;28;20571;-56
2023/10/26 09:21:01;;;;;;;2.10;1.60;;;;;;;11.69;100.00;149054.00;5003108;28;20233;-57
2023/10/26 09:23:29;;;;;;;4.23;1.50;;;;;;;11.64;100.00;149042.81;4997314;28;20235;-57
2023/10/26 09:25:57;;;;;;;9.63;7.00;;;;;;;11.51;100.00;149011.63;4997286;28;20234;-57
2023/10/26 09:28:24;;;;;;;10.33;7.67;;;;;;;11.48;100.00;149004.16;5000617;28;20223;-58
2023/10/26 09:30:58;;;;;;;4.03;3.20;;;;;;;11.59;100.00;149029.06;4998153;28;20238;-58
2023/10/26 09:33:25;;;;;;;9.53;5.57;;;;;;;11.65;100.00;149044.03;5002123;28;20564;-58
2023/10/26 09:35:52;;;;;;;4.40;2.13;;;;;;;11.75;100.00;149067.69;4998529;28;20238;-58
2023/10/26 09:38:34;;;;;;;3.43;2.27;;;;;;;11.81;100.00;149082.66;5003348;28;20236;-58
2023/10/26 09:41:01;;;;;;;8.63;3.63;;;;;;;11.80;100.00;149081.44;5000146;28;20231;-58
2023/10/26 09:43:28;;;;;;;4.30;2.00;;;;;;;11.73;100.00;149063.97;5003574;28;20239;-57
2023/10/26 09:45:56;;;;;;;3.77;2.23;;;;;;;11.80;100.00;149080.16;4996435;28;20220;-58
2023/10/26 09:48:23;;;;;;;4.17;2.03;;;;;;;11.81;100.00;149082.66;5004805;28;20713;-57
2023/10/26 09:50:50;;;;;;;2.73;1.50;;;;;;;11.70;100.00;149056.50;4999628;28;20239;-59
2023/10/26 09:53:18;;;;;;;6.30;2.90;;;;;;;11.65;100.00;149044.03;5000983;28;20233;-59
2023/10/26 09:55:46;;;;;;;3.47;2.20;;;;;;;11.72;100.00;149061.47;5001411;28;20235;-59
2023/10/26 09:58:14;;;;;;;6.40;3.43;;;;;;;11.70;100.00;149056.50;4989044;28;20318;-59
2023/10/26 10:00:41;;;;;;;7.53;4.40;;;;;;;11.79;100.00;149077.66;5000559;28;20224;-59
2023/10/26 10:03:13;;;;;;;4.37;3.30;;;;;;;11.73;100.00;149062.72;5001245;28;20607;-58
2023/10/26 10:05:41;;;;;;;4.13;2.40;;;;;;;11.76;100.00;149070.19;5003717;28;20228;-59
2023/10/26 10:08:09;;;;;;;69.07;23.90;;;;;;;11.75;100.00;149068.97;4998885;28;20598;-58
2023/10/26 10:11:16;;;;;;;9.43;3.80;;;;;;;11.77;100.00;149073.94;5003830;28;20247;-59
2023/10/26 10:13:43;;;;;;;3.43;1.70;;;;;;;11.75;100.00;149068.97;4981990;28;20236;-58
2023/10/26 10:16:43;;;;;;;1.90;1.50;;;;;;;11.69;100.00;149054.00;4998647;28;20235;-58
2023/10/26 10:19:19;;;;;;;0.97;0.40;;;;;;;11.38;100.00;148979.22;5000078;28;20249;-59
2023/10/26 10:21:47;;;;;;;1.57;0.50;;;;;;;11.36;100.00;148974.25;4998417;28;20241;-58
2023/10/26 10:24:48;;;;;;;4.37;2.17;;;;;;;11.60;100.00;149031.56;4999944;28;20685;-58
2023/10/26 10:27:16;;;;;;;1.87;0.80;;;;;;;11.81;100.00;149082.66;4999322;28;20238;-58
2023/10/26 10:29:43;;;;;;;0.97;0.40;;;;;;;11.79;100.00;149077.66;5000782;28;20281;-58
2023/10/26 10:32:10;;;;;;;2.07;1.83;;;;;;;11.94;100.00;149113.84;4999166;28;20289;-58
2023/10/26 10:34:43;;;;;;;0.80;0.60;;;;;;;11.94;100.00;149113.84;5000880;28;20229;-57
2023/10/26 10:37:10;;;;;;;0.77;0.40;;;;;;;12.21;100.00;149178.69;4998369;28;20785;-58
2023/10/26 10:39:37;;;;;;;0.60;0.53;;;;;;;12.58;100.00;149268.47;5003840;28;20565;-59
2023/10/26 10:42:09;;;;;;;2.13;1.50;;;;;;;13.02;100.00;149373.25;4997981;28;20712;-59
2023/10/26 10:44:38;;;;;;;8.33;2.37;;;;;;;13.38;100.00;149461.81;5014494;28;20228;-58
2023/10/26 10:47:05;;;;;;;2.63;1.40;;;;;;;13.77;100.00;149555.44;4999341;28;20229;-58
2023/10/26 10:49:31;;;;;;;9.57;5.80;;;;;;;13.86;100.00;149576.63;5002486;28;20604;-58
2023/10/26 10:51:58;;;;;;;3.43;1.47;;;;;;;14.22;100.00;149662.78;4998397;28;20286;-59
2023/10/26 10:54:25;;;;;;;4.00;1.67;;;;;;;14.54;100.00;149741.41;4999472;28;20230;-58
2023/10/26 10:56:52;;;;;;;5.90;2.43;;;;;;;14.85;100.00;149815.13;4996236;28;20233;-59
2023/10/26 10:59:20;;;;;;;4.57;1.70;;;;;;;15.08;100.00;149871.31;5000732;28;20244;-59
2023/10/26 11:01:50;;;;;;;4.70;1.70;;;;;;;15.07;100.00;149868.81;5001353;28;20565;-56
2023/10/26 11:04:16;;;;;;;4.70;1.37;;;;;;;15.03;100.00;149858.81;5002987;28;20685;-58
2023/10/26 11:06:48;;;;;;;5.47;0.93;;;;;;;14.81;100.00;149806.41;4999901;28;20239;-58
2023/10/26 11:09:27;;;;;;;3.43;1.03;;;;;;;15.04;100.00;149861.31;4982222;28;20653;-58
2023/10/26 11:11:53;;;;;;;11.82;4.82;;;;;;;15.24;100.00;149910.06;4997099;28;20455;-58
2023/10/26 11:14:21;;;;;;;6.53;1.80;;;;;;;15.19;100.00;149897.56;5000874;28;20570;-58
2023/10/26 11:16:50;;;;;;;10.57;2.67;;;;;;;15.17;100.00;149892.56;4998642;28;20233;-58
2023/10/26 11:19:16;;;;;;;8.93;1.43;;;;;;;15.49;100.00;149969.97;4999529;28;20234;-58
2023/10/26 11:21:43;;;;;;;7.77;1.73;;;;;;;15.69;98.79;150017.47;5001896;28;20239;-58
2023/10/26 11:24:10;;;;;;;6.73;1.87;;;;;;;15.58;95.48;149992.47;4999581;28;20238;-58
2023/10/26 11:26:36;;;;;;;9.07;2.17;;;;;;;15.19;99.00;149898.78;5001550;28;20226;-56